createdAt,value
2019-06-20T00:00:03.556Z,45.52
2019-06-20T00:01:03.532Z,45.42
2019-06-20T00:02:03.518Z,46.12
2019-06-20T00:03:03.510Z,45.40
2019-06-20T00:04:03.500Z,45.00
2019-06-20T00:05:03.496Z,45.20
2019-06-20T00:06:03.497Z,46.22
2019-06-20T00:07:03.472Z,46.42
2019-06-20T00:08:03.459Z,46.42
2019-06-20T00:09:03.449Z,46.42
2019-06-20T00:10:03.516Z,45.92
2019-06-20T00:11:03.422Z,45.52
2019-06-20T00:12:03.411Z,46.61
2019-06-20T00:13:03.410Z,46.42
2019-06-20T00:14:03.388Z,46.42
2019-06-20T00:15:03.416Z,47.03
2019-06-20T00:16:03.384Z,46.51
2019-06-20T00:17:03.373Z,45.92
2019-06-20T00:18:03.346Z,47.21
2019-06-20T00:19:03.337Z,46.93
2019-06-20T00:20:03.351Z,46.24
2019-06-20T00:21:03.345Z,46.34
2019-06-20T00:22:03.302Z,46.73
2019-06-20T00:23:03.290Z,46.93
2019-06-20T00:24:03.279Z,47.83
2019-06-20T00:25:03.277Z,47.33
2019-06-20T00:26:03.259Z,47.61
2019-06-20T00:27:03.253Z,47.80
2019-06-20T00:28:03.377Z,48.52
2019-06-20T00:29:03.297Z,46.64
2019-06-20T00:30:03.232Z,47.33
2019-06-20T00:31:03.211Z,47.80
2019-06-20T00:32:03.200Z,48.10
2019-06-20T00:33:03.193Z,48.90
2019-06-20T00:34:03.175Z,49.21
2019-06-20T00:35:03.172Z,49.21
2019-06-20T00:36:03.156Z,48.72
2019-06-20T00:37:03.140Z,48.92
2019-06-20T00:38:03.133Z,48.92
2019-06-20T00:39:03.123Z,47.92
2019-06-20T00:40:03.124Z,48.92
2019-06-20T00:41:03.103Z,49.41
2019-06-20T00:42:03.194Z,49.81
2019-06-20T00:43:16.392Z,50.01
2019-06-20T00:44:04.067Z,49.91
2019-06-20T00:45:03.063Z,50.11
2019-06-20T00:46:03.054Z,49.71
2019-06-20T00:47:03.032Z,49.41
2019-06-20T00:48:03.030Z,49.41
2019-06-20T00:49:03.011Z,49.51
2019-06-20T00:50:03.029Z,50.93
2019-06-20T00:51:03.035Z,50.33
2019-06-20T00:52:02.978Z,49.54
2019-06-20T00:53:02.967Z,49.63
2019-06-20T00:54:02.957Z,49.74
2019-06-20T00:55:02.945Z,49.63
2019-06-20T00:56:02.940Z,48.94
2019-06-20T00:57:02.922Z,49.93
2019-06-20T00:58:02.911Z,48.84
2019-06-20T00:59:02.907Z,49.44
2019-06-20T01:00:02.950Z,49.36
2019-06-20T01:01:02.890Z,49.56
2019-06-20T01:02:02.876Z,49.46
2019-06-20T01:03:02.856Z,49.76
2019-06-20T01:04:02.851Z,50.45
2019-06-20T01:05:02.855Z,50.05
2019-06-20T01:06:02.833Z,49.66
2019-06-20T01:07:02.816Z,50.08
2019-06-20T01:08:02.804Z,49.88
2019-06-20T01:09:02.798Z,50.38
2019-06-20T01:10:02.789Z,49.88
2019-06-20T01:11:02.805Z,50.08
2019-06-20T01:12:02.761Z,51.35
2019-06-20T01:13:02.751Z,51.35
2019-06-20T01:14:02.744Z,50.95
2019-06-20T01:15:02.730Z,51.25
2019-06-20T01:16:02.767Z,51.75
2019-06-20T01:17:02.722Z,51.75
2019-06-20T01:18:02.709Z,51.84
2019-06-20T01:19:02.691Z,51.84
2019-06-20T01:20:02.674Z,53.14
2019-06-20T01:21:02.674Z,53.23
2019-06-20T01:22:02.658Z,52.94
2019-06-20T01:23:02.644Z,53.86
2019-06-20T01:24:02.638Z,53.93
2019-06-20T01:25:02.626Z,53.44
2019-06-20T01:26:02.625Z,53.56
2019-06-20T01:27:02.598Z,53.16
2019-06-20T01:28:02.605Z,52.76
2019-06-20T01:29:02.588Z,53.88
2019-06-20T01:30:02.567Z,54.46
2019-06-20T01:31:02.576Z,54.68
2019-06-20T01:32:02.547Z,54.65
2019-06-20T01:33:02.558Z,54.38
2019-06-20T01:34:02.562Z,54.28
2019-06-20T01:35:02.515Z,55.27
2019-06-20T01:36:02.515Z,55.38
2019-06-20T01:37:02.493Z,54.58
2019-06-20T01:38:02.483Z,55.47
2019-06-20T01:39:02.474Z,55.27
2019-06-20T01:40:02.462Z,54.58
2019-06-20T01:41:06.003Z,56.07
2019-06-20T01:42:02.446Z,55.87
2019-06-20T01:43:02.428Z,56.07
2019-06-20T01:44:02.416Z,56.27
2019-06-20T01:45:02.403Z,57.56
2019-06-20T01:46:02.404Z,56.57
2019-06-20T01:47:02.538Z,57.39
2019-06-20T01:48:02.373Z,57.96
2019-06-20T01:49:02.362Z,57.99
2019-06-20T01:50:02.350Z,57.29
2019-06-20T01:51:02.372Z,58.18
2019-06-20T01:52:02.327Z,57.59
2019-06-20T01:53:02.319Z,58.09
2019-06-20T01:54:02.308Z,57.59
2019-06-20T01:55:02.297Z,57.69
2019-06-20T01:56:02.322Z,57.99
2019-06-20T01:57:02.321Z,58.81
2019-06-20T01:58:02.264Z,58.28
2019-06-20T01:59:02.253Z,57.99
2019-06-20T02:00:02.242Z,58.71
2019-06-20T02:01:02.276Z,59.01
2019-06-20T02:02:02.225Z,58.31
2019-06-20T02:03:02.212Z,57.62
2019-06-20T02:04:02.202Z,58.11
2019-06-20T02:05:02.197Z,57.71
2019-06-20T02:06:02.229Z,57.62
2019-06-20T02:07:02.177Z,58.04
2019-06-20T02:08:02.154Z,59.14
2019-06-20T02:09:02.153Z,59.14
2019-06-20T02:10:02.133Z,59.34
2019-06-20T02:11:02.123Z,58.94
2019-06-20T02:12:02.122Z,59.74
2019-06-20T02:13:02.106Z,60.33
2019-06-20T02:14:07.306Z,59.36
2019-06-20T02:15:03.091Z,58.84
2019-06-20T02:16:02.074Z,59.36
2019-06-20T02:17:02.087Z,58.87
2019-06-20T02:18:02.046Z,60.36
2019-06-20T02:19:02.037Z,60.36
2019-06-20T02:20:02.028Z,61.06
2019-06-20T02:21:02.016Z,60.76
2019-06-20T02:22:02.026Z,60.66
2019-06-20T02:23:02.007Z,60.06
2019-06-20T02:24:01.981Z,61.06
2019-06-20T02:25:01.992Z,60.76
2019-06-20T02:26:01.963Z,61.36
2019-06-20T02:27:01.961Z,61.96
2019-06-20T02:28:01.937Z,61.49
2019-06-20T02:29:01.929Z,61.46
2019-06-20T02:30:01.917Z,61.55
2019-06-20T02:31:01.912Z,61.79
2019-06-20T02:32:01.909Z,61.49
2019-06-20T02:33:01.884Z,61.88
2019-06-20T02:34:01.871Z,61.29
2019-06-20T02:35:01.899Z,61.88
2019-06-20T02:36:01.856Z,62.38
2019-06-20T02:37:01.857Z,62.08
2019-06-20T02:38:01.827Z,62.29
2019-06-20T02:39:01.828Z,62.59
2019-06-20T02:40:01.808Z,62.71
2019-06-20T02:41:01.796Z,63.01
2019-06-20T02:42:01.797Z,63.31
2019-06-20T02:43:01.785Z,62.81
2019-06-20T02:44:01.762Z,63.51
2019-06-20T02:45:01.751Z,63.81
2019-06-20T02:46:01.740Z,63.51
2019-06-20T02:47:01.738Z,63.94
2019-06-20T02:48:01.720Z,63.04
2019-06-20T02:49:01.711Z,62.15
2019-06-20T02:50:01.705Z,62.94
2019-06-20T02:51:01.685Z,62.24
2019-06-20T02:52:01.691Z,62.74
2019-06-20T02:53:01.723Z,61.65
2019-06-20T02:54:01.653Z,62.54
2019-06-20T02:55:01.641Z,63.64
2019-06-20T02:56:01.632Z,63.64
2019-06-20T02:57:01.631Z,63.14
2019-06-20T02:58:01.609Z,63.74
2019-06-20T02:59:01.604Z,63.54
2019-06-20T03:00:01.791Z,63.74
2019-06-20T03:01:01.576Z,63.94
2019-06-20T03:02:01.576Z,63.74
2019-06-20T03:03:01.577Z,64.44
2019-06-20T03:04:01.552Z,63.77
2019-06-20T03:05:01.542Z,64.54
2019-06-20T03:06:01.522Z,65.26
2019-06-20T03:07:01.522Z,65.26
2019-06-20T03:08:01.501Z,64.87
2019-06-20T03:09:01.489Z,65.17
2019-06-20T03:10:01.482Z,64.77
2019-06-20T03:11:01.479Z,64.37
2019-06-20T03:12:01.467Z,65.77
2019-06-20T03:13:01.444Z,65.87
2019-06-20T03:14:01.437Z,65.70
2019-06-20T03:15:01.445Z,65.70
2019-06-20T03:16:01.417Z,65.50
2019-06-20T03:17:01.442Z,66.09
2019-06-20T03:18:01.395Z,66.23
2019-06-20T03:19:01.389Z,66.20
2019-06-20T03:20:01.371Z,66.63
2019-06-20T03:21:01.360Z,66.13
2019-06-20T03:22:01.455Z,67.43
2019-06-20T03:23:01.348Z,67.49
2019-06-20T03:24:01.328Z,66.73
2019-06-20T03:25:01.318Z,67.10
2019-06-20T03:26:01.314Z,67.19
2019-06-20T03:27:01.298Z,66.60
2019-06-20T03:28:01.297Z,66.80
2019-06-20T03:29:01.283Z,67.30
2019-06-20T03:30:01.264Z,66.00
2019-06-20T03:31:01.253Z,66.09
2019-06-20T03:32:01.239Z,66.09
2019-06-20T03:33:01.285Z,66.00
2019-06-20T03:34:01.218Z,65.70
2019-06-20T03:35:01.211Z,66.00
2019-06-20T03:36:01.203Z,66.09
2019-06-20T03:37:01.240Z,65.50
2019-06-20T03:38:01.189Z,65.90
2019-06-20T03:39:01.164Z,65.80
2019-06-20T03:40:01.154Z,66.30
2019-06-20T03:41:01.144Z,65.60
2019-06-20T03:42:01.137Z,65.60
2019-06-20T03:43:01.134Z,66.36
2019-06-20T03:44:01.115Z,65.56
2019-06-20T03:45:02.506Z,66.06
2019-06-20T03:46:01.096Z,66.39
2019-06-20T03:47:01.077Z,65.30
2019-06-20T03:48:01.081Z,65.80
2019-06-20T03:49:01.057Z,65.90
2019-06-20T03:50:01.061Z,66.30
2019-06-20T03:51:01.037Z,66.09
2019-06-20T03:52:01.027Z,65.70
2019-06-20T03:53:01.024Z,65.56
2019-06-20T03:54:00.999Z,65.80
2019-06-20T03:55:00.992Z,65.60
2019-06-20T03:56:00.979Z,65.77
2019-06-20T03:57:00.977Z,65.56
2019-06-20T03:58:00.985Z,65.77
2019-06-20T03:59:00.953Z,65.50
2019-06-20T04:00:00.941Z,66.20
2019-06-20T04:01:00.925Z,66.00
2019-06-20T04:02:00.918Z,66.00
2019-06-20T04:03:00.914Z,65.77
2019-06-20T04:04:00.894Z,65.77
2019-06-20T04:05:00.883Z,65.67
2019-06-20T04:06:00.870Z,65.37
2019-06-20T04:07:00.859Z,65.30
2019-06-20T04:08:00.858Z,65.37
2019-06-20T04:09:00.840Z,65.87
2019-06-20T04:10:00.847Z,65.77
2019-06-20T04:11:00.822Z,65.47
2019-06-20T04:12:00.804Z,65.67
2019-06-20T04:13:00.822Z,65.56
2019-06-20T04:14:00.787Z,65.67
2019-06-20T04:15:00.773Z,65.17
2019-06-20T04:16:00.762Z,65.07
2019-06-20T04:17:00.843Z,65.37
2019-06-20T04:18:00.755Z,65.56
2019-06-20T04:19:00.735Z,65.67
2019-06-20T04:20:00.729Z,65.67
2019-06-20T04:21:00.713Z,65.67
2019-06-20T04:22:00.704Z,65.17
2019-06-20T04:23:00.733Z,64.97
2019-06-20T04:24:00.678Z,65.17
2019-06-20T04:25:00.706Z,65.47
2019-06-20T04:26:00.659Z,65.37
2019-06-20T04:27:00.648Z,64.97
2019-06-20T04:28:00.646Z,65.56
2019-06-20T04:29:00.621Z,64.87
2019-06-20T04:30:00.620Z,64.34
2019-06-20T04:31:00.598Z,64.54
2019-06-20T04:32:00.589Z,63.44
2019-06-20T04:33:00.929Z,64.84
2019-06-20T04:34:00.577Z,63.64
2019-06-20T04:35:00.556Z,63.14
2019-06-20T04:36:00.545Z,63.64
2019-06-20T04:37:00.542Z,63.14
2019-06-20T04:38:00.528Z,62.84
2019-06-20T04:39:00.527Z,63.74
2019-06-20T04:40:00.502Z,63.54
2019-06-20T04:41:00.495Z,63.84
2019-06-20T04:42:00.484Z,64.44
2019-06-20T04:43:00.469Z,64.84
2019-06-20T04:44:00.471Z,65.04
2019-06-20T04:45:00.452Z,64.74
2019-06-20T04:46:00.438Z,64.97
2019-06-20T04:47:00.425Z,64.57
2019-06-20T04:48:00.419Z,64.34
2019-06-20T04:49:00.415Z,63.44
2019-06-20T04:50:00.405Z,64.24
2019-06-20T04:51:00.390Z,64.44
2019-06-20T04:52:00.378Z,63.54
2019-06-20T04:53:00.369Z,63.24
2019-06-20T04:54:00.366Z,63.24
2019-06-20T04:55:00.340Z,63.44
2019-06-20T04:56:00.331Z,63.51
2019-06-20T04:57:00.320Z,63.61
2019-06-20T04:58:00.306Z,63.81
2019-06-20T04:59:00.310Z,63.51
2019-06-20T05:00:00.287Z,63.21
2019-06-20T05:01:00.283Z,63.01
2019-06-20T05:02:00.267Z,62.31
2019-06-20T05:03:00.289Z,62.38
2019-06-20T05:04:00.256Z,62.18
2019-06-20T05:05:00.234Z,62.48
2019-06-20T05:06:00.226Z,62.26
2019-06-20T05:07:00.211Z,61.76
2019-06-20T05:08:00.198Z,60.96
2019-06-20T05:09:00.216Z,61.13
2019-06-20T05:10:00.186Z,60.24
2019-06-20T05:11:00.179Z,59.34
2019-06-20T05:12:00.195Z,59.01
2019-06-20T05:13:00.151Z,59.61
2019-06-20T05:14:00.177Z,59.61
2019-06-20T05:15:00.139Z,59.48
2019-06-20T05:16:00.114Z,59.08
2019-06-20T05:17:00.103Z,57.89
2019-06-20T05:18:00.104Z,57.69
2019-06-20T05:19:00.090Z,57.99
2019-06-20T05:20:00.076Z,58.18
2019-06-20T05:21:00.058Z,58.36
2019-06-20T05:22:00.043Z,58.69
2019-06-20T05:23:00.039Z,58.28
2019-06-20T05:24:00.031Z,59.58
2019-06-20T05:25:00.017Z,59.18
2019-06-20T05:26:00.002Z,59.18
2019-06-20T05:27:00.005Z,58.11
2019-06-20T05:27:59.982Z,59.08
2019-06-20T05:28:59.984Z,58.88
2019-06-20T05:29:59.965Z,59.25
2019-06-20T05:30:59.947Z,58.86
2019-06-20T05:31:59.935Z,58.75
2019-06-20T05:32:59.924Z,58.86
2019-06-20T05:33:59.935Z,58.75
2019-06-20T05:35:02.904Z,58.75
2019-06-20T05:35:59.921Z,58.69
2019-06-20T05:37:00.011Z,59.25
2019-06-20T05:37:59.870Z,58.75
2019-06-20T05:38:59.888Z,58.36
2019-06-20T05:39:59.851Z,58.13
2019-06-20T05:40:59.840Z,58.36
2019-06-20T05:41:59.867Z,58.73
2019-06-20T05:42:59.833Z,59.05
2019-06-20T05:43:59.828Z,59.45
2019-06-20T05:44:59.815Z,59.15
2019-06-20T05:46:09.292Z,59.75
2019-06-20T05:47:11.872Z,60.14
2019-06-20T05:48:00.767Z,59.55
2019-06-20T05:48:59.771Z,59.65
2019-06-20T05:49:59.765Z,59.45
2019-06-20T05:50:59.743Z,59.65
2019-06-20T05:51:59.731Z,59.65
2019-06-20T05:52:59.714Z,59.55
2019-06-20T05:53:59.710Z,60.57
2019-06-20T05:54:59.717Z,59.65
2019-06-20T05:55:59.721Z,60.27
2019-06-20T05:57:03.318Z,60.38
2019-06-20T05:57:59.678Z,60.38
2019-06-20T05:58:59.660Z,60.77
2019-06-20T05:59:59.655Z,60.97
2019-06-20T06:00:59.630Z,61.07
2019-06-20T06:01:59.643Z,61.60
2019-06-20T06:02:59.636Z,61.47
2019-06-20T06:03:59.599Z,61.77
2019-06-20T06:04:59.593Z,61.99
2019-06-20T06:05:59.579Z,61.90
2019-06-20T06:06:59.565Z,61.99
2019-06-20T06:07:59.562Z,61.69
2019-06-20T06:08:59.535Z,61.60
2019-06-20T06:10:03.680Z,60.60
2019-06-20T06:10:59.523Z,60.70
2019-06-20T06:11:59.518Z,60.11
2019-06-20T06:12:59.497Z,60.80
2019-06-20T06:13:59.509Z,61.50
2019-06-20T06:15:00.989Z,61.50
2019-06-20T06:16:00.251Z,61.80
2019-06-20T06:16:59.459Z,61.69
2019-06-20T06:17:59.445Z,61.90
2019-06-20T06:18:59.439Z,62.72
2019-06-20T06:19:59.429Z,62.29
2019-06-20T06:20:59.414Z,63.62
2019-06-20T06:21:59.409Z,63.72
2019-06-20T06:22:59.401Z,65.41
2019-06-20T06:23:59.705Z,65.31
2019-06-20T06:24:59.375Z,65.31
2019-06-20T06:25:59.359Z,65.24
2019-06-20T06:27:00.060Z,67.77
2019-06-20T06:27:59.340Z,68.96
2019-06-20T06:28:59.324Z,68.70
2019-06-20T06:29:59.320Z,68.79
2019-06-20T06:30:59.302Z,69.62
2019-06-20T06:31:59.287Z,71.42
2019-06-20T06:32:59.286Z,72.35
2019-06-20T06:33:59.264Z,72.95
2019-06-20T06:34:59.271Z,72.99
2019-06-20T06:35:59.248Z,73.19
2019-06-20T06:36:59.230Z,73.19
2019-06-20T06:37:59.218Z,74.12
2019-06-20T06:38:59.208Z,73.82
2019-06-20T06:39:59.241Z,74.26
2019-06-20T06:40:59.188Z,74.55
2019-06-20T06:41:59.217Z,74.16
2019-06-20T06:42:59.166Z,72.96
2019-06-20T06:43:59.174Z,73.25
2019-06-20T06:44:59.155Z,74.05
2019-06-20T06:45:59.144Z,74.76
2019-06-20T06:46:59.774Z,74.36
2019-06-20T06:47:59.108Z,74.59
2019-06-20T06:48:59.103Z,74.85
2019-06-20T06:49:59.100Z,75.85
2019-06-20T06:50:59.082Z,75.59
2019-06-20T06:51:59.071Z,74.85
2019-06-20T06:52:59.061Z,75.85
2019-06-20T06:53:59.055Z,75.56
2019-06-20T06:54:59.066Z,75.85
2019-06-20T06:55:59.036Z,75.59
2019-06-20T06:56:59.021Z,74.26
2019-06-20T06:57:59.010Z,74.16
2019-06-20T06:58:59.003Z,74.55
2019-06-20T06:59:58.997Z,74.55
2019-06-20T07:00:59.009Z,72.96
2019-06-20T07:01:58.962Z,73.75
2019-06-20T07:02:58.949Z,73.16
2019-06-20T07:03:58.936Z,72.09
2019-06-20T07:04:58.929Z,74.09
2019-06-20T07:05:58.926Z,72.99
2019-06-20T07:06:58.915Z,73.89
2019-06-20T07:07:58.911Z,73.89
2019-06-20T07:08:58.912Z,74.49
2019-06-20T07:09:58.873Z,74.59
2019-06-20T07:10:58.875Z,74.29
2019-06-20T07:11:58.853Z,74.59
2019-06-20T07:12:58.842Z,74.26
2019-06-20T07:13:58.833Z,74.05
2019-06-20T07:14:58.836Z,73.25
2019-06-20T07:15:58.820Z,74.55
2019-06-20T07:17:00.684Z,73.46
2019-06-20T07:17:58.785Z,73.36
2019-06-20T07:18:58.795Z,73.96
2019-06-20T07:19:58.773Z,73.12
2019-06-20T07:20:58.785Z,72.96
2019-06-20T07:21:58.741Z,73.32
2019-06-20T07:22:58.752Z,72.52
2019-06-20T07:23:58.799Z,73.92
2019-06-20T07:24:58.719Z,73.82
2019-06-20T07:25:58.755Z,72.92
2019-06-20T07:26:58.689Z,71.72
2019-06-20T07:27:58.678Z,72.29
2019-06-20T07:28:58.666Z,71.62
2019-06-20T07:29:58.664Z,72.78
2019-06-20T07:30:58.656Z,72.99
2019-06-20T07:31:58.653Z,72.39
2019-06-20T07:32:58.618Z,72.89
2019-06-20T07:33:58.609Z,72.59
2019-06-20T07:34:58.607Z,73.05
2019-06-20T07:35:58.599Z,71.95
2019-06-20T07:36:58.587Z,72.25
2019-06-20T07:37:58.592Z,71.75
2019-06-20T07:38:58.557Z,71.26
2019-06-20T07:39:58.546Z,71.45
2019-06-20T07:40:58.546Z,71.36
2019-06-20T07:41:58.527Z,71.36
2019-06-20T07:42:58.526Z,71.66
2019-06-20T07:43:58.503Z,71.75
2019-06-20T07:44:58.510Z,71.45
2019-06-20T07:46:02.856Z,72.25
2019-06-20T07:46:58.479Z,70.86
2019-06-20T07:47:58.462Z,69.96
2019-06-20T07:48:59.444Z,70.26
2019-06-20T07:49:58.455Z,71.45
2019-06-20T07:51:07.442Z,71.45
2019-06-20T07:51:58.431Z,70.65
2019-06-20T07:53:02.583Z,70.56
2019-06-20T07:53:58.390Z,70.26
2019-06-20T07:54:58.377Z,70.56
2019-06-20T07:55:58.380Z,70.46
2019-06-20T07:56:58.358Z,70.65
2019-06-20T07:57:58.350Z,70.86
2019-06-20T07:58:58.346Z,70.95
2019-06-20T07:59:58.330Z,70.56
2019-06-20T08:00:58.460Z,70.69
2019-06-20T08:01:58.303Z,70.95
2019-06-20T08:02:58.294Z,70.95
2019-06-20T08:03:58.280Z,70.95
2019-06-20T08:04:58.273Z,70.76
2019-06-20T08:05:58.277Z,70.65
2019-06-20T08:06:58.277Z,70.62
2019-06-20T08:07:58.249Z,70.53
2019-06-20T08:08:58.257Z,69.32
2019-06-20T08:09:58.218Z,69.32
2019-06-20T08:10:58.205Z,69.62
2019-06-20T08:11:58.238Z,69.82
2019-06-20T08:12:58.184Z,68.83
2019-06-20T08:13:58.183Z,68.93
2019-06-20T08:15:13.771Z,68.93
2019-06-20T08:15:59.161Z,69.23
2019-06-20T08:16:58.161Z,69.20
2019-06-20T08:17:58.135Z,69.29
2019-06-20T08:18:58.160Z,68.99
2019-06-20T08:19:58.201Z,69.82
2019-06-20T08:20:58.107Z,68.79
2019-06-20T08:21:58.103Z,68.99
2019-06-20T08:22:58.084Z,68.70
2019-06-20T08:23:58.124Z,68.60
2019-06-20T08:24:59.024Z,68.30
2019-06-20T08:25:59.249Z,68.10
2019-06-20T08:26:58.710Z,68.70
2019-06-20T08:27:59.427Z,68.26
2019-06-20T08:29:10.231Z,68.19
2019-06-20T08:29:59.125Z,68.10
2019-06-20T08:30:58.963Z,68.07
2019-06-20T08:31:59.480Z,67.66
2019-06-20T08:32:59.865Z,67.77
2019-06-20T08:33:59.266Z,67.47
2019-06-20T08:34:59.419Z,68.37
2019-06-20T08:35:58.928Z,68.13
2019-06-20T08:36:59.241Z,68.13
2019-06-20T08:37:59.322Z,67.83
2019-06-20T08:38:58.735Z,66.91
2019-06-20T08:39:58.424Z,66.91
2019-06-20T08:40:58.450Z,65.98
2019-06-20T08:41:59.231Z,66.54
2019-06-20T08:42:58.855Z,66.58
2019-06-20T08:43:58.449Z,65.68
2019-06-20T08:44:57.961Z,65.58
2019-06-20T08:45:57.928Z,65.48
2019-06-20T08:46:59.376Z,64.98
2019-06-20T08:47:58.330Z,64.79
2019-06-20T08:48:58.264Z,64.66
2019-06-20T08:49:58.454Z,65.16
2019-06-20T08:50:58.541Z,64.33
2019-06-20T08:51:59.123Z,64.10
2019-06-20T08:52:58.477Z,62.12
2019-06-20T08:53:59.215Z,62.65
2019-06-20T08:54:59.253Z,62.55
2019-06-20T08:55:59.317Z,59.97
2019-06-20T08:56:58.986Z,60.27
2019-06-20T08:57:59.413Z,60.27
2019-06-20T08:58:58.549Z,59.81
2019-06-20T08:59:58.785Z,58.33
2019-06-20T09:00:59.645Z,58.63
2019-06-20T09:02:00.274Z,57.81
2019-06-20T09:02:58.612Z,57.58
2019-06-20T09:03:58.500Z,56.20
2019-06-20T09:04:58.041Z,57.41
2019-06-20T09:05:58.262Z,56.52
2019-06-20T09:06:59.153Z,57.93
2019-06-20T09:07:59.000Z,57.57
2019-06-20T09:08:58.260Z,57.76
2019-06-20T09:09:57.656Z,57.07
2019-06-20T09:10:57.560Z,58.59
2019-06-20T09:11:58.586Z,59.41
2019-06-20T09:12:57.576Z,59.01
2019-06-20T09:13:57.531Z,59.80
2019-06-20T09:14:58.878Z,59.61
2019-06-20T09:15:58.721Z,60.00
2019-06-20T09:16:59.222Z,60.10
2019-06-20T09:17:58.471Z,60.50
2019-06-20T09:18:58.419Z,60.23
2019-06-20T09:19:58.046Z,59.93
2019-06-20T09:20:58.090Z,60.63
2019-06-20T09:21:57.996Z,60.83
2019-06-20T09:22:58.838Z,60.03
2019-06-20T09:23:57.771Z,60.13
2019-06-20T09:24:58.473Z,61.05
2019-06-20T09:25:57.595Z,61.05
2019-06-20T09:26:57.389Z,60.66
2019-06-20T09:27:58.127Z,60.56
2019-06-20T09:28:57.367Z,61.25
2019-06-20T09:29:58.522Z,61.62
2019-06-20T09:30:57.382Z,60.43
2019-06-20T09:32:06.688Z,60.23
2019-06-20T09:32:57.830Z,59.76
2019-06-20T09:34:01.616Z,60.56
2019-06-20T09:34:58.678Z,60.85
2019-06-20T09:35:57.529Z,62.24
2019-06-20T09:36:57.514Z,60.96
2019-06-20T09:38:04.312Z,59.17
2019-06-20T09:38:57.904Z,59.27
2019-06-20T09:39:57.298Z,59.47
2019-06-20T09:40:57.227Z,60.26
2019-06-20T09:41:57.214Z,60.36
2019-06-20T09:42:58.635Z,60.85
2019-06-20T09:43:58.488Z,60.75
2019-06-20T09:44:58.353Z,61.75
2019-06-20T09:45:58.378Z,61.65
2019-06-20T09:46:58.213Z,61.02
2019-06-20T09:47:58.268Z,60.85
2019-06-20T09:48:58.673Z,61.12
2019-06-20T09:49:58.638Z,60.63
2019-06-20T09:50:57.167Z,59.76
2019-06-20T09:51:58.617Z,60.36
2019-06-20T09:52:58.298Z,60.16
2019-06-20T09:53:58.202Z,60.63
2019-06-20T09:54:58.239Z,60.16
2019-06-20T09:55:57.812Z,60.53
2019-06-20T09:56:58.390Z,58.84
2019-06-20T09:57:58.187Z,60.23
2019-06-20T09:58:58.239Z,59.23
2019-06-20T10:00:07.902Z,59.61
2019-06-20T10:00:58.012Z,59.31
2019-06-20T10:01:58.742Z,58.61
2019-06-20T10:02:57.865Z,59.51
2019-06-20T10:03:56.989Z,59.18
2019-06-20T10:04:57.032Z,59.78
2019-06-20T10:05:56.963Z,59.78
2019-06-20T10:06:56.946Z,58.69
2019-06-20T10:07:56.976Z,59.67
2019-06-20T10:08:56.939Z,59.45
2019-06-20T10:09:56.914Z,58.78
2019-06-20T10:10:56.902Z,58.88
2019-06-20T10:11:56.892Z,59.28
2019-06-20T10:12:56.891Z,59.25
2019-06-20T10:13:56.874Z,59.18
2019-06-20T10:14:56.864Z,59.28
2019-06-20T10:15:56.853Z,59.08
2019-06-20T10:16:56.967Z,59.38
2019-06-20T10:17:58.505Z,59.18
2019-06-20T10:18:56.888Z,59.88
2019-06-20T10:19:56.823Z,60.07
2019-06-20T10:20:57.704Z,58.95
2019-06-20T10:21:57.499Z,58.16
2019-06-20T10:22:57.483Z,58.56
2019-06-20T10:23:56.798Z,59.15
2019-06-20T10:24:57.869Z,59.45
2019-06-20T10:25:58.155Z,59.55
2019-06-20T10:26:57.937Z,59.94
2019-06-20T10:27:57.902Z,59.42
2019-06-20T10:28:57.418Z,59.22
2019-06-20T10:30:10.474Z,59.22
2019-06-20T10:30:57.895Z,59.32
2019-06-20T10:31:57.298Z,59.81
2019-06-20T10:32:57.702Z,59.42
2019-06-20T10:33:56.937Z,59.39
2019-06-20T10:34:57.171Z,58.80
2019-06-20T10:35:57.267Z,59.17
2019-06-20T10:36:57.070Z,59.56
2019-06-20T10:37:57.164Z,57.29
2019-06-20T10:38:56.927Z,58.84
2019-06-20T10:39:56.812Z,57.33
2019-06-20T10:40:59.898Z,55.75
2019-06-20T10:41:57.245Z,54.46
2019-06-20T10:42:57.014Z,53.99
2019-06-20T10:43:56.697Z,53.20
2019-06-20T10:44:56.538Z,54.98
2019-06-20T10:45:56.750Z,54.39
2019-06-20T10:46:56.533Z,54.19
2019-06-20T10:47:56.508Z,54.10
2019-06-20T10:48:56.529Z,53.92
2019-06-20T10:49:56.488Z,54.02
2019-06-20T10:50:56.472Z,54.71
2019-06-20T10:51:56.460Z,54.14
2019-06-20T10:52:56.448Z,55.11
2019-06-20T10:53:56.449Z,54.02
2019-06-20T10:54:56.429Z,55.01
2019-06-20T10:55:56.416Z,55.11
2019-06-20T10:56:56.405Z,53.92
2019-06-20T10:57:56.398Z,54.32
2019-06-20T10:58:56.435Z,55.21
2019-06-20T10:59:56.385Z,54.12
2019-06-20T11:00:56.395Z,55.01
2019-06-20T11:01:56.353Z,54.88
2019-06-20T11:02:56.341Z,53.80
2019-06-20T11:03:56.344Z,54.19
2019-06-20T11:04:56.327Z,54.10
2019-06-20T11:05:56.310Z,52.91
2019-06-20T11:06:56.298Z,53.20
2019-06-20T11:07:56.290Z,53.11
2019-06-20T11:08:56.292Z,54.69
2019-06-20T11:09:56.275Z,53.00
2019-06-20T11:10:56.281Z,52.41
2019-06-20T11:11:56.251Z,52.61
2019-06-20T11:12:56.585Z,52.61
2019-06-20T11:13:56.242Z,52.41
2019-06-20T11:14:56.211Z,51.42
2019-06-20T11:15:56.200Z,52.12
2019-06-20T11:16:56.191Z,52.51
2019-06-20T11:17:57.065Z,52.31
2019-06-20T11:18:56.184Z,52.61
2019-06-20T11:19:57.022Z,51.82
2019-06-20T11:20:56.192Z,52.12
2019-06-20T11:21:56.135Z,52.01
2019-06-20T11:22:56.135Z,52.41
2019-06-20T11:23:56.123Z,51.92
2019-06-20T11:24:56.107Z,51.72
2019-06-20T11:25:56.107Z,51.62
2019-06-20T11:26:56.088Z,53.30
2019-06-20T11:27:56.078Z,53.30
2019-06-20T11:28:57.099Z,53.00
2019-06-20T11:30:02.637Z,53.30
2019-06-20T11:33:08.048Z,52.81
2019-06-20T11:34:07.776Z,52.61
2019-06-20T11:35:07.752Z,51.92
2019-06-20T11:36:07.752Z,53.20
2019-06-20T11:37:07.740Z,53.70
2019-06-20T11:38:07.721Z,53.70
2019-06-20T11:39:07.722Z,52.91
2019-06-20T11:40:15.993Z,51.99
2019-06-20T11:41:07.691Z,52.19
2019-06-20T11:42:07.683Z,51.70
2019-06-20T11:43:07.677Z,51.77
2019-06-20T11:44:07.781Z,51.37
2019-06-20T11:45:07.659Z,51.57
2019-06-20T11:46:07.639Z,52.76
2019-06-20T11:47:07.628Z,52.26
2019-06-20T11:48:07.623Z,53.33
2019-06-20T11:49:07.616Z,52.04
2019-06-20T11:50:07.601Z,52.66
2019-06-20T11:51:07.594Z,51.87
2019-06-20T11:52:07.579Z,51.37
2019-06-20T11:53:07.568Z,50.38
2019-06-20T11:54:07.879Z,49.30
2019-06-20T11:55:07.543Z,51.47
2019-06-20T11:56:07.543Z,53.08
2019-06-20T11:57:07.530Z,51.40
2019-06-20T11:58:07.513Z,52.36
2019-06-20T11:59:07.503Z,50.78
2019-06-20T12:00:07.502Z,51.28
2019-06-20T12:01:07.479Z,50.81
2019-06-20T12:02:07.473Z,50.71
2019-06-20T12:03:07.459Z,49.52
2019-06-20T12:04:09.422Z,49.62
2019-06-20T12:05:07.461Z,49.52
2019-06-20T12:06:07.436Z,49.94
2019-06-20T12:07:07.418Z,50.81
2019-06-20T12:08:07.412Z,50.71
2019-06-20T12:09:07.425Z,51.10
2019-06-20T12:10:07.398Z,49.32
2019-06-20T12:11:07.384Z,50.51
2019-06-20T12:12:07.368Z,51.10
2019-06-20T12:13:07.357Z,50.78
2019-06-20T12:14:07.411Z,50.90
2019-06-20T12:15:07.349Z,49.20
2019-06-20T12:16:07.340Z,49.60
2019-06-20T12:17:07.323Z,48.61
2019-06-20T12:18:07.328Z,48.49
2019-06-20T12:19:07.299Z,48.39
2019-06-20T12:20:07.294Z,48.41
2019-06-20T12:21:07.277Z,47.62
2019-06-20T12:22:07.264Z,48.80
2019-06-20T12:23:07.255Z,48.21
2019-06-20T12:24:08.678Z,48.39
2019-06-20T12:25:07.244Z,48.71
2019-06-20T12:26:07.218Z,47.89
2019-06-20T12:27:07.252Z,48.80
2019-06-20T12:28:07.207Z,48.49
2019-06-20T12:29:07.236Z,47.72
2019-06-20T12:30:07.193Z,48.19
2019-06-20T12:31:18.845Z,48.11
2019-06-20T12:32:10.056Z,47.81
2019-06-20T12:33:07.182Z,48.71
2019-06-20T12:34:07.184Z,48.02
2019-06-20T12:35:07.139Z,48.80
2019-06-20T12:36:07.118Z,49.01
2019-06-20T12:37:07.101Z,49.49
2019-06-20T12:38:07.096Z,48.80
2019-06-20T12:39:07.082Z,48.71
2019-06-20T12:40:07.114Z,49.42
2019-06-20T12:41:07.060Z,49.62
2019-06-20T12:42:07.052Z,48.71
2019-06-20T12:43:07.038Z,49.62
2019-06-20T12:44:07.045Z,49.49
2019-06-20T12:45:07.038Z,50.09
2019-06-20T12:46:07.062Z,50.48
2019-06-20T12:47:07.001Z,50.09
2019-06-20T12:48:07.015Z,49.30
2019-06-20T12:49:06.978Z,48.90
2019-06-20T12:50:06.983Z,48.11
2019-06-20T12:51:06.957Z,48.39
2019-06-20T12:52:06.950Z,47.52
2019-06-20T12:53:06.941Z,48.71
2019-06-20T12:54:06.942Z,49.30